Terminal Aerodrome Forecast
Issued by NWS

Current Version | Previous Version | Graphics & Text | Print | Product List | Glossary On
Versions: 1 2 3 4 5 6 7 8 9 10 11 12 13 14 15 16 17 18 19 20 21 22 23 24
000
FTUS41 KRLX 280525
TAFCKB
TAF
KCKB 280525Z 2806/2906 00000KT 6SM BR FEW070
     FM280800 00000KT 1/4SM FG SCT080
     FM281200 00000KT 4SM HZ FEW080
     FM281300 00000KT P6SM FEW015
     FM290200 00000KT 6SM HZ FEW080
     FM290500 00000KT 3SM HZ FEW080=

USA.gov is the U.S. government's official web portal to all federal, state and local government web resources and services.